Carlson, Washington
Current Conditions -  °F | °C
As of 3:58 PM on Sunday 21 Dec 2014 (Local Time) from KGRF Reporting Station
Broken Clouds Broken Clouds  
Wind Chill: 51°   Ceiling: 14000
Heat Index: 51°   Visibility: 10mi
Dew Point: 47°   Wind: 3mph
Humidity: 89%   Direction: 210°SSW
Pressure: 30.04"   Gusts: NA
Location:  46.6944°N, 122.245°W
Report Text: KGRF 212358Z 21003KT 10SM FEW047 SCT110 BKN140 10/09 A3004 RMK AO2A DZB12E15RAB15E33DZB33E38 SLP177 P0000 60000 T01030085 10126 20102 50018 $
Loading
Personal Weather Stations






























Interactive Weather Map New forecast layout! Learn more

10-Day Weather Forecast

Advertisements
Track Severe Weather on mobile